Weather observations for the past three days for
Hillsville
Imperial (Metric)
Date Time (edt) Wind (mph) Vis. (mi.) Weather Sky Cond. Temperature (ºF) Relative Humidity Wind Chill (°F) Heat Index (°F) Pressure Precipitation (in)
Air Dwpt 6 hour altimeter (in) sea level (mb) 1 hr 3 hr 6 hr
Max. Min.
10 07:55 W 3 10.00 Fair CLR 53.6 46.4 77% 30.04 0.0
10 07:35 W 5 10.00 Fair CLR 51.8 46.4 82% 30.03 0.0
10 07:15 W 5 10.00 Fair CLR 51.8 46.4 82% 30.02 0.0
10 06:55 W 3 10.00 Fair CLR 51.8 48.2 88% 30.01 0.0
10 06:35 W 6 10.00 Fair CLR 51.8 46.4 82% 30 0.0
10 06:15 W 6 10.00 Fair CLR 50 46.4 88% 48 30 0.0
10 05:55 W 6 10.00 Fair CLR 50 46.4 88% 48 29.99 0.0
10 05:35 SW 5 10.00 Fair CLR 50 46.4 88% 49 30 0.0
10 05:15 SW 3 10.00 Fair CLR 51.8 46.4 82% 29.98 0.0
10 04:55 W 3 10.00 Fair CLR 51.8 46.4 82% 29.98 0.0
10 04:35 W 5 10.00 Fair CLR 50 46.4 88% 49 29.97 0.0
10 04:15 W 5 10.00 Fair CLR 50 46.4 88% 49 29.96 0.0
10 03:55 SW 3 10.00 Fair CLR 51.8 46.4 82% 29.96 0.0
10 03:35 W 7 10.00 Fair CLR 51.8 46.4 82% 29.96 0.0
10 03:15 SW 6 10.00 Fair CLR 51.8 46.4 82% 29.96 0.0
10 02:55 SW 3 10.00 Fair CLR 48.2 44.6 87% 29.96 0.0
10 02:35 W 5 10.00 Fair CLR 53.6 46.4 77% 29.96 0.0
10 02:15 W 5 10.00 Fair CLR 53.6 44.6 72% 29.96 0.0
10 01:55 S 3 10.00 Fair CLR 55.4 46.4 72% 29.96 0.0
10 01:35 SW 5 10.00 Fair CLR 55.4 46.4 72% 29.97 0.0
10 01:15 SW 5 10.00 Fair CLR 55.4 46.4 72% 29.97 0.0
10 00:55 W 3 10.00 Fair CLR 57.2 46.4 67% 29.96 0.0
10 00:35 SW 3 10.00 Fair CLR 57.2 46.4 67% 29.96 0.0
10 00:15 S 3 10.00 Fair CLR 55.4 46.4 72% 29.96 0.0
09 23:55 SW 6 10.00 Fair CLR 59 46.4 63% 29.96 0.0
09 23:35 SW 6 10.00 Fair CLR 53.6 46.4 77% 29.96 0.0
09 23:15 S 5 10.00 Fair CLR 53.6 46.4 77% 29.96 0.0
09 22:55 W 5 10.00 Fair CLR 59 46.4 63% 29.95 0.0
09 22:35 W 5 10.00 Fair CLR 60.8 46.4 59% 29.95 0.0
09 22:15 SW 3 10.00 Fair CLR 59 46.4 63% 29.95 0.0
09 21:55 W 3 10.00 Fair CLR 60.8 46.4 59% 29.94 0.0
09 21:35 W 6 10.00 Fair CLR 60.8 46.4 59% 29.93 0.0
09 21:15 W 3 10.00 Fair CLR 60.8 46.4 59% 29.91 0.0
09 20:55 W 3 10.00 Fair CLR 62.6 44.6 52% 29.91 0.0
09 20:35 NW 6 10.00 Fair CLR 62.6 46.4 56% 29.9 0.0
09 20:15 W 3 10.00 Fair CLR 64.4 46.4 52% 29.89 0.0
09 19:55 NW 3 10.00 Fair CLR 64.4 46.4 52% 29.89 0.0
09 19:35 Calm 10.00 Partly Cloudy SCT065 64.4 46.4 52% 29.89 0.0
09 19:15 W 7 10.00 Mostly Cloudy BKN065 66.2 46.4 49% 29.89 0.0
09 18:55 W 9 10.00 Mostly Cloudy BKN065 68 46.4 46% 29.88 0.0
09 18:35 NW 10 10.00 Mostly Cloudy BKN065 68 44.6 43% 29.87 0.0
09 18:15 W 8 G 16 10.00 Partly Cloudy SCT065 68 44.6 43% 29.87 0.0
09 17:55 NW 13 G 17 10.00 Partly Cloudy SCT065 68 44.6 43% 29.87 0.0
09 17:35 NW 15 G 22 10.00 Mostly Cloudy BKN055 BKN070 68 44.6 43% 29.87 0.0
09 17:15 W 9 G 21 10.00 Mostly Cloudy BKN065 68 44.6 43% 29.86 0.0
09 16:55 W 12 G 23 10.00 Mostly Cloudy BKN065 68 44.6 43% 29.85 0.0
09 16:35 W 12 G 20 10.00 Mostly Cloudy SCT055 BKN065 69.8 46.4 43% 29.85 0.0
09 16:15 NW 15 G 23 10.00 Mostly Cloudy BKN055 68 44.6 43% 29.85 0.0
09 15:55 NW 14 G 18 10.00 Overcast OVC050 68 44.6 43% 29.85 0.0
09 15:35 NW 10 10.00 Overcast BKN050 BKN065 OVC075 68 46.4 46% 29.85 0.0
09 15:15 Calm 10.00 Overcast BKN050 OVC065 68 46.4 46% 29.85 0.0
09 14:55 SE 3 10.00 Overcast SCT049 BKN055 OVC070 66.2 46.4 49% 29.85 0.0
09 14:35 Calm 10.00 Overcast SCT047 BKN055 OVC070 66.2 48.2 52% 29.86 0.0
09 14:15 S 3 10.00 Overcast BKN045 OVC050 64.4 50 60% 29.87 0.0
09 13:55 SE 3 10.00 Overcast BKN047 OVC050 66.2 46.4 49% 29.87 0.0
09 13:35 NW 7 10.00 Overcast SCT043 BKN049 OVC060 64.4 46.4 52% 29.87 0.0
09 13:15 NW 7 10.00 Overcast BKN049 OVC060 64.4 44.6 49% 29.87 0.0
09 12:55 SW 5 10.00 Overcast SCT035 OVC047 62.6 48.2 60% 29.89 0.0
09 12:35 SW 3 10.00 Overcast SCT033 BKN041 OVC049 62.6 48.2 60% 29.89 0.0
09 12:15 S 7 10.00 Overcast SCT033 BKN038 OVC046 62.6 50 64% 29.89 0.0
09 11:55 S 10 G 17 10.00 Mostly Cloudy SCT031 BKN038 BKN047 62.6 50 64% 29.89 0.0
09 11:35 S 6 10.00 Mostly Cloudy SCT031 BKN038 62.6 50 64% 29.89 0.0
09 11:15 S 8 10.00 Mostly Cloudy BKN031 BKN040 60.8 48.2 63% 29.89 0.0
09 10:55 S 7 10.00 Partly Cloudy SCT029 60.8 48.2 63% 29.89 0.0
09 10:35 SW 12 10.00 Partly Cloudy SCT023 60.8 50 68% 29.89 0.0
09 10:15 S 10 10.00 Partly Cloudy SCT023 60.8 48.2 63% 29.89 0.0
09 09:55 SW 10 G 16 10.00 Fair CLR 59 50 72% 29.89 0.0
09 09:35 S 7 10.00 Fair CLR 59 48.2 68% 29.89 0.0
09 09:15 S 7 10.00 Fair CLR 55.4 48.2 77% 29.9 0.0
09 08:55 S 6 10.00 Fair CLR 55.4 48.2 77% 29.91 0.0
09 08:35 S 5 10.00 Fair CLR 53.6 48.2 82% 29.92 0.0
09 08:15 S 3 10.00 Fair CLR 51.8 46.4 82% 29.92 0.0
09 07:55 S 3 10.00 Fair CLR 51.8 46.4 82% 29.92 0.0
09 07:35 S 3 10.00 Fair CLR 50 44.6 82% 29.91 0.0
09 07:15 S 5 10.00 Fair CLR 50 44.6 82% 49 29.91 0.0
09 06:55 S 5 10.00 Fair CLR 50 44.6 82% 49 29.91 0.0
09 06:35 S 5 10.00 Fair CLR 50 44.6 82% 49 29.91 0.0
09 06:15 S 5 10.00 Fair CLR 50 44.6 82% 49 29.9 0.0
09 05:55 S 3 10.00 Fair CLR 51.8 44.6 77% 29.89 0.0
09 05:35 S 5 10.00 Fair CLR 50 44.6 82% 49 29.9 0.0
09 05:15 S 6 10.00 Fair CLR 50 44.6 82% 48 29.9 0.0
09 04:55 S 6 10.00 Fair CLR 51.8 44.6 77% 29.9 0.0
09 04:35 S 6 10.00 Fair CLR 51.8 44.6 77% 29.9 0.0
09 04:15 S 7 10.00 Fair CLR 51.8 44.6 77% 29.9 0.0
09 03:55 S 6 10.00 Fair CLR 51.8 44.6 77% 29.9 0.0
09 03:35 S 7 10.00 Fair CLR 51.8 44.6 77% 29.91 0.0
09 03:15 S 7 10.00 Fair CLR 51.8 44.6 77% 29.91 0.0
09 02:55 S 6 10.00 Fair CLR 51.8 44.6 77% 29.91 0.0
09 02:35 S 6 10.00 Fair CLR 51.8 44.6 77% 29.92 0.0
09 02:15 S 7 10.00 Fair CLR 51.8 42.8 72% 29.93 0.0
09 01:55 SW 7 10.00 Fair CLR 51.8 42.8 72% 29.95 0.0
09 01:35 S 7 10.00 Fair CLR 53.6 42.8 67% 29.96 0.0
09 01:15 S 7 10.00 Fair CLR 53.6 42.8 67% 29.96 0.0
09 00:55 S 7 10.00 Fair CLR 51.8 41 67% 29.96 0.0
09 00:35 S 6 10.00 Fair CLR 51.8 41 67% 29.95 0.0
09 00:15 S 7 10.00 Fair CLR 51.8 39.2 62% 29.96 0.0
08 23:55 S 7 10.00 Fair CLR 53.6 37.4 54% 29.96 0.0
08 23:35 S 7 10.00 Fair CLR 53.6 37.4 54% 29.97 0.0
08 23:15 S 8 10.00 Fair CLR 53.6 37.4 54% 29.96 0.0
08 22:55 S 8 10.00 Fair CLR 53.6 35.6 51% 29.97 0.0
08 22:35 S 9 10.00 Fair CLR 53.6 35.6 51% 29.97 0.0
08 22:15 S 5 10.00 Fair CLR 53.6 35.6 51% 29.98 0.0
08 21:55 S 8 10.00 Fair CLR 53.6 35.6 51% 29.98 0.0
08 21:35 S 9 10.00 Fair CLR 53.6 33.8 47% 29.97 0.0
08 21:15 S 7 10.00 Fair CLR 55.4 33.8 44% 29.96 0.0
08 20:55 S 6 10.00 Fair CLR 55.4 33.8 44% 29.96 0.0
08 20:35 S 7 10.00 Fair CLR 55.4 33.8 44% 29.96 0.0
08 20:15 S 9 10.00 Fair CLR 57.2 33.8 41% 29.96 0.0
08 19:55 S 9 10.00 Fair CLR 59 33.8 39% 29.96 0.0
08 19:35 S 8 10.00 Fair CLR 59 33.8 39% 29.96 0.0
08 19:15 S 9 10.00 Fair CLR 60.8 33.8 36% 29.96 0.0
08 18:55 S 13 G 16 10.00 Fair CLR 60.8 33.8 36% 29.95 0.0
08 18:35 S 9 10.00 Fair CLR 60.8 33.8 36% 29.95 0.0
08 18:15 S 13 G 17 10.00 Fair CLR 62.6 33.8 34% 29.94 0.0
08 17:55 S 7 10.00 Fair CLR 62.6 33.8 34% 29.94 0.0
08 17:35 S 8 10.00 Fair CLR 62.6 32 32% 29.94 0.0
08 17:15 S 6 10.00 Partly Cloudy SCT070 62.6 33.8 34% 29.94 0.0
08 16:55 S 8 G 16 10.00 Mostly Cloudy BKN070 62.6 33.8 34% 29.96 0.0
08 16:35 S 10 G 16 10.00 Partly Cloudy SCT070 62.6 35.6 37% 29.96 0.0
08 16:15 S 10 10.00 Fair CLR 64.4 35.6 34% 29.96 0.0
08 15:55 S 6 10.00 Partly Cloudy SCT070 62.6 33.8 34% 29.97 0.0
08 15:35 S 8 G 16 10.00 Partly Cloudy SCT070 64.4 35.6 34% 29.98 0.0
08 15:15 S 8 G 18 10.00 Mostly Cloudy BKN070 62.6 35.6 37% 29.98 0.0
08 14:55 SE 9 10.00 Mostly Cloudy BKN070 BKN080 62.6 35.6 37% 29.99 0.0
08 14:35 S 8 10.00 Partly Cloudy SCT070 62.6 35.6 37% 29.99 0.0
08 14:15 S 5 10.00 Partly Cloudy SCT070 62.6 33.8 34% 30 0.0
08 13:55 S 7 10.00 Partly Cloudy SCT070 62.6 32 32% 30.01 0.0
08 13:35 S 6 10.00 Fair CLR 62.6 32 32% 30.02 0.0
08 13:15 W 3 10.00 Fair CLR 60.8 32 34% 30.03 0.0
08 12:55 W 5 10.00 Fair CLR 60.8 32 34% 30.03 0.0
08 12:35 E 5 10.00 Fair CLR 60.8 32 34% 30.04 0.0
08 12:15 SW 6 10.00 Fair CLR 59 30.2 34% 30.05 0.0
08 11:55 S 3 10.00 Fair CLR 59 32 36% 30.05 0.0
08 11:35 S 7 10.00 Fair CLR 57.2 30.2 36% 30.06 0.0
08 11:15 Calm 10.00 Fair CLR 55.4 32 41% 30.06 0.0
08 10:55 Calm 10.00 Fair CLR 55.4 30.2 38% 30.07 0.0
08 10:35 NW 3 10.00 Fair CLR 53.6 30.2 41% 30.06 0.0
08 10:15 NE 5 10.00 Fair CLR 53.6 32 44% 30.06 0.0
08 09:55 N 5 10.00 Fair CLR 51.8 30.2 44% 30.05 0.0
08 09:35 N 5 10.00 Fair CLR 51.8 32 47% 30.05 0.0
08 09:15 N 5 10.00 Fair CLR 50 32 50% 49 30.05 0.0
08 08:55 Calm 10.00 Fair CLR 50 33.8 54% 30.05 0.0
08 08:35 W 3 10.00 Fair CLR 46.4 33.8 62% 30.05 0.0
08 08:15 Calm 10.00 Fair CLR 46.4 33.8 62% 30.04 0.0
08 07:55 Calm 10.00 Fair CLR 42.8 33.8 71% 30.04 0.0
08 07:35 Calm 10.00 Fair CLR 42.8 35.6 76% 30.03 0.0
08 07:15 SE 5 10.00 Fair CLR 41 33.8 76% 38 30.03 0.0
08 06:55 Calm 10.00 Fair CLR 41 32 70% 30.02 0.0
08 06:35 NW 5 10.00 Fair CLR 42.8 32 66% 41 30.01 0.0
08 06:15 NW 6 10.00 Fair CLR 42.8 32 66% 40 30 0.0
08 05:55 NW 6 10.00 Fair CLR 42.8 32 66% 40 30 0.0
08 05:35 NW 9 10.00 Fair CLR 44.6 32 61% 40 29.98 0.0
08 05:15 NW 10 10.00 Fair CLR 44.6 32 61% 40 29.98 0.0
08 04:55 NW 12 10.00 Fair CLR 44.6 32 61% 39 29.98 0.0
08 04:35 NW 13 10.00 Fair CLR 44.6 33.8 66% 39 29.98 0.0
08 04:15 NW 15 10.00 Fair CLR 44.6 33.8 66% 38 29.98 0.0
08 03:55 NW 16 10.00 Fair CLR 46.4 33.8 62% 40 29.98 0.0
08 03:35 NW 14 10.00 Fair CLR 46.4 33.8 62% 41 29.98 0.0
08 03:15 NW 13 10.00 Fair CLR 46.4 33.8 62% 41 29.98 0.0
08 02:55 NW 12 10.00 Fair CLR 46.4 33.8 62% 42 29.98 0.0
08 02:35 NW 13 10.00 Fair CLR 46.4 33.8 62% 41 29.98 0.0
08 02:15 NW 12 10.00 Fair CLR 46.4 35.6 66% 42 29.98 0.0
08 01:55 NW 10 10.00 Fair CLR 46.4 35.6 66% 42 29.98 0.0
08 01:35 NW 10 10.00 Fair CLR 46.4 37.4 71% 42 29.98 0.0
08 01:15 NW 12 10.00 Fair CLR 48.2 37.4 66% 44 29.98 0.0
08 00:55 NW 13 G 16 10.00 Fair CLR 48.2 37.4 66% 43 29.97 0.0
08 00:35 NW 9 10.00 Fair CLR 48.2 37.4 66% 45 29.96 0.0
08 00:15 NW 9 10.00 Fair CLR 50 37.4 62% 47 29.96 0.0
07 23:55 W 8 10.00 Fair CLR 50 37.4 62% 47 29.96 0.0
07 23:35 NW 10 G 17 10.00 Fair CLR 50 39.2 67% 46 29.96 0.0
07 23:15 NW 9 10.00 Fair CLR 50 39.2 67% 47 29.95 0.0
07 22:55 NW 6 10.00 Fair CLR 50 41 71% 48 29.95 0.0
07 22:35 NW 5 10.00 Fair CLR 50 41 71% 49 29.94 0.0
07 22:15 W 3 10.00 Fair CLR 48.2 41 76% 29.94 0.0
07 21:55 Calm 10.00 Fair CLR 50 41 71% 29.93 0.0
07 21:35 NW 6 10.00 Fair CLR 50 41 71% 48 29.92 0.0
07 21:15 NW 8 10.00 Fair CLR 50 41 71% 47 29.91 0.0
07 20:55 NW 7 10.00 Fair CLR 50 41 71% 48 29.9 0.0
07 20:35 NW 10 G 17 10.00 Fair CLR 51.8 41 67% 29.9 0.0
07 20:15 NW 10 G 20 10.00 Fair CLR 51.8 41 67% 29.9 0.0
07 19:55 NW 16 G 20 10.00 Partly Cloudy SCT035 53.6 39.2 58% 29.9 0.0
07 19:35 NW 14 G 18 10.00 Partly Cloudy SCT037 53.6 41 63% 29.9 0.0
07 19:15 NW 10 10.00 Partly Cloudy SCT037 53.6 39.2 58% 29.89 0.0
07 18:55 NW 14 G 23 10.00 Mostly Cloudy BKN035 53.6 39.2 58% 29.89 0.0
07 18:35 NW 15 G 20 10.00 Mostly Cloudy BKN030 BKN037 53.6 41 63% 29.87 0.0
07 18:15 NW 16 G 24 10.00 Mostly Cloudy BKN026 53.6 42.8 67% 29.87 0.0
07 17:55 NW 13 G 20 10.00 Mostly Cloudy BKN024 55.4 44.6 67% 29.87 0.0
07 17:35 NW 13 10.00 Overcast OVC022 55.4 44.6 67% 29.86 0.0
07 17:15 NW 18 G 24 10.00 Overcast BKN022 OVC031 53.6 44.6 72% 29.85 0.0
07 16:15 NW 16 G 23 10.00 Overcast BKN018 OVC023 57.2 46.4 67% 29.84 0.0
07 15:55 N 9 10.00 Overcast OVC016 55.4 46.4 72% 29.85 0.0
07 15:35 N 10 G 17 10.00 Overcast OVC016 53.6 46.4 77% 29.85 0.0
07 15:15 NW 14 0.00 NULL NULL 0 0 0% 29.86 0.0
07 14:55 NW 14 10.00 Overcast OVC015 55.4 48.2 77% 29.86 0.0
07 14:35 NW 14 G 18 10.00 Overcast OVC013 53.6 48.2 82% 29.87 0.0
07 14:15 N 9 10.00 Overcast OVC011 53.6 48.2 82% 29.87 0.0
07 13:55 NW 10 G 17 10.00 Overcast OVC009 53.6 48.2 82% 29.87 0.0
07 13:35 NW 10 10.00 Overcast OVC007 51.8 48.2 88% 29.87 0.0
07 13:15 N 9 10.00 Overcast OVC007 51.8 50 94% 29.87 0.0
07 12:55 N 8 10.00 Overcast OVC005 51.8 50 94% 29.88 0.0
07 12:35 NW 10 7.00 Overcast OVC003 51.8 50 94% 29.88 0.0
07 12:15 NE 6 5.00 Fog/Mist OVC003 51.8 50 94% 29.88 0.0
07 11:55 N 6 5.00 Fog/Mist OVC003 51.8 51.8 100% 29.88 0.0
07 11:35 N 9 4.00 Fog/Mist OVC003 51.8 50 94% 29.88 0.0
07 11:15 N 6 7.00 Overcast OVC003 51.8 51.8 100% 29.88 0.0
07 10:55 NE 7 7.00 Overcast OVC003 53.6 51.8 94% 29.88 0.0
07 10:15 N 6 10.00 Overcast OVC003 53.6 51.8 94% 29.88 0.0
07 09:55 N 7 10.00 Overcast OVC003 53.6 51.8 94% 29.88 0.0
07 09:35 NE 5 10.00 Overcast OVC003 53.6 51.8 94% 29.87 0.0
07 09:15 N 5 10.00 Overcast OVC005 53.6 51.8 94% 29.87 0.0
07 08:55 NE 6 10.00 Overcast OVC005 53.6 51.8 94% 29.87 0.0
07 08:35 N 5 10.00 Overcast OVC005 53.6 51.8 94% 29.91 0.0
07 08:15 N 5 10.00 Overcast OVC003 53.6 53.6 100% 29.9 0.0
Date Time (edt) Wind (mph) Vis. (mi.) Weather Sky Cond. Air Dwpt Max. Min. Relative Humidity Wind Chill (°F) Heat Index (°F) altimeter (in) sea level (mb) 1 hr 3 hr 6 hr
6 hour
Temperature (ºF) Pressure Precipitation (in)